Poston, Arizona
Current Conditions -  °F | °C
As of 10:52 AM on Thursday 30 Oct 2014 (Local Time) from KBLH Reporting Station
Clear Clear  
Wind Chill: 77°   Ceiling: Unl
Heat Index: 77°   Visibility: 10mi
Dew Point: 27°   Wind: 6mph
Humidity: 16%   Direction: 200°SSW
Pressure: 30"   Gusts: NA
Location:  33.96°N, 114.42°W
Report Text: KBLH 301752Z AUTO 20005KT 10SM CLR 25/M03 A3000 RMK AO2 SLP154 T02501028 10250 20144 50003
Loading
Personal Weather Stations






























Interactive Weather Map
Tropical Storm Tracking
New forecast layout! Learn more

10-Day Weather Forecast

Advertisements
Track Severe Weather on mobile